Terminal Aerodrome Forecast
Issued by NWS Tampa Bay Area, FL

Current Version | Previous Version | Text Only | Print | Product List | Glossary On
Versions: 1 2 3 4 5 6 7 8 9 10 11 12 13
000
FTUS42 KTBW 230052 AAA
TAFSRQ
TAF AMD
KSRQ 230052Z 2301/2324 32006KT P6SM VCTS SCT050CB SCT250
     FM230300 06005KT P6SM FEW050 SCT250
     FM231700 15008KT P6SM BKN250
     FM232000 06006KT P6SM VCTS SCT050CB BKN250=

USA.gov is the U.S. government's official web portal to all federal, state and local government web resources and services.